Time;durP1;ratioP1;P1;durP2;ratioP2;P2;SDS_P1;SDS_P2;PMS_P1;PMS_P2;Temp;Humidity;BMP_temperature;BMP_pressure;BME280_temperature;BME280_humidity;BME280_pressure;Samples;Min_cycle;Max_cycle;Signal;HPM_P1;HPM_P2
2022/12/31 00:02:08;;;;;;;2.03;1.20;;;13.50;99.90;;;;;;2612671;39;20557;-81
2022/12/31 00:04:34;;;;;;;1.70;1.00;;;13.50;99.90;;;;;;2612516;54;20981;-81
2022/12/31 00:07:00;;;;;;;1.67;1.00;;;13.60;99.90;;;;;;2612199;54;20147;-78
2022/12/31 00:09:25;;;;;;;2.73;1.27;;;13.80;99.90;;;;;;2614662;47;20781;-85
2022/12/31 00:11:57;;;;;;;2.10;1.40;;;13.70;99.90;;;;;;2617121;54;20154;-85
2022/12/31 00:14:23;;;;;;;2.40;1.40;;;13.60;99.90;;;;;;2618799;39;20533;-85
2022/12/31 00:16:48;;;;;;;2.30;1.37;;;13.60;99.90;;;;;;2617296;54;20431;-84
2022/12/31 00:19:14;;;;;;;2.60;1.50;;;13.60;99.90;;;;;;2614336;54;20780;-78
2022/12/31 00:21:42;;;;;;;1.90;1.07;;;13.60;99.90;;;;;;2614052;47;20155;-77
2022/12/31 00:24:09;;;;;;;2.10;1.10;;;13.50;99.90;;;;;;2613706;54;20183;-78
2022/12/31 00:26:35;;;;;;;3.37;0.97;;;13.50;99.90;;;;;;2613781;39;21003;-77
2022/12/31 00:29:01;;;;;;;2.17;1.10;;;13.40;99.90;;;;;;2612426;39;20917;-80
2022/12/31 00:31:30;;;;;;;2.37;1.20;;;13.40;99.90;;;;;;2612031;54;20419;-79
2022/12/31 00:33:56;;;;;;;1.63;0.63;;;13.30;99.90;;;;;;2614342;39;20896;-80
2022/12/31 00:36:25;;;;;;;2.10;1.00;;;13.30;99.90;;;;;;2611792;47;20988;-80
2022/12/31 00:38:52;;;;;;;1.70;0.90;;;13.30;99.90;;;;;;2613942;54;20430;-82
2022/12/31 00:41:19;;;;;;;1.80;0.97;;;13.20;99.90;;;;;;2613734;54;20422;-82
2022/12/31 00:43:45;;;;;;;1.87;1.10;;;13.20;99.90;;;;;;2612693;54;20415;-82
2022/12/31 00:46:12;;;;;;;1.93;0.90;;;13.20;99.90;;;;;;2611107;54;20419;-82
2022/12/31 00:48:38;;;;;;;1.80;0.80;;;13.10;99.90;;;;;;2613217;54;20151;-79
2022/12/31 00:51:09;;;;;;;2.03;0.80;;;13.10;99.90;;;;;;2612744;39;20816;-79
2022/12/31 00:53:36;;;;;;;3.57;0.90;;;13.00;99.90;;;;;;2614102;54;20487;-83
2022/12/31 00:56:07;;;;;;;2.20;1.10;;;13.00;99.90;;;;;;2613308;54;20415;-83
2022/12/31 00:58:33;;;;;;;1.60;0.80;;;13.00;99.90;;;;;;2613340;54;20470;-77
2022/12/31 01:01:11;;;;;;;1.90;0.90;;;12.90;99.90;;;;;;2612236;54;20424;-76
2022/12/31 01:03:37;;;;;;;1.80;1.10;;;12.90;99.90;;;;;;2612480;39;21003;-83
2022/12/31 01:06:03;;;;;;;2.30;1.30;;;12.90;99.90;;;;;;2612576;47;20411;-83
2022/12/31 01:08:30;;;;;;;4.03;1.90;;;12.90;99.90;;;;;;2614109;39;20610;-86
2022/12/31 01:13:40;;;;;;;2.40;1.87;;;12.90;99.90;;;;;;2613976;54;20422;-80
2022/12/31 01:16:16;;;;;;;2.80;2.17;;;12.90;99.90;;;;;;2612717;54;20423;-81
2022/12/31 01:18:42;;;;;;;3.30;2.30;;;12.90;99.90;;;;;;2612801;54;20182;-76
2022/12/31 01:21:10;;;;;;;4.30;2.43;;;12.80;99.90;;;;;;2611483;54;20442;-76
2022/12/31 01:23:38;;;;;;;2.43;1.97;;;12.80;99.90;;;;;;2614086;47;20599;-81
2022/12/31 01:26:06;;;;;;;2.60;1.50;;;12.90;99.90;;;;;;2612417;54;20435;-80
2022/12/31 01:28:32;;;;;;;3.83;1.40;;;13.00;99.90;;;;;;2612692;47;20407;-78
2022/12/31 01:30:58;;;;;;;3.23;1.47;;;13.00;99.90;;;;;;2612035;54;20423;-81
2022/12/31 01:33:23;;;;;;;2.10;1.13;;;13.10;99.90;;;;;;2613471;46;20542;-77
2022/12/31 01:35:49;;;;;;;2.00;1.20;;;13.30;99.90;;;;;;2612992;54;21051;-76
2022/12/31 01:38:15;;;;;;;3.20;1.30;;;13.40;99.90;;;;;;2611561;54;20151;-84
2022/12/31 01:40:41;;;;;;;1.57;0.90;;;13.50;99.90;;;;;;2613530;47;20179;-84
2022/12/31 01:43:19;;;;;;;2.33;1.60;;;13.50;99.90;;;;;;2613544;54;20162;-84
2022/12/31 01:45:53;;;;;;;1.67;0.87;;;13.50;99.90;;;;;;2613168;54;20415;-79
2022/12/31 01:48:25;;;;;;;1.63;0.80;;;13.40;99.90;;;;;;2613756;54;20426;-77
2022/12/31 01:50:53;;;;;;;2.13;1.20;;;13.50;99.90;;;;;;2613124;39;20817;-77
2022/12/31 01:53:19;;;;;;;1.90;0.80;;;13.40;99.90;;;;;;2612990;54;20508;-76
2022/12/31 01:55:55;;;;;;;2.03;0.90;;;13.50;99.90;;;;;;2610318;54;20407;-77
2022/12/31 01:58:29;;;;;;;1.70;0.90;;;13.50;99.90;;;;;;2612163;54;20431;-77
2022/12/31 02:00:57;;;;;;;2.70;0.90;;;13.50;99.90;;;;;;2612120;54;20415;-77
2022/12/31 02:03:25;;;;;;;1.60;0.60;;;13.70;99.90;;;;;;2613273;47;20423;-82
2022/12/31 02:06:09;;;;;;;1.80;0.80;;;13.70;99.90;;;;;;2612935;46;20419;-83
2022/12/31 02:08:36;;;;;;;1.60;0.60;;;13.70;99.90;;;;;;2614624;31;20944;-79
2022/12/31 02:11:02;;;;;;;1.60;0.60;;;13.80;99.90;;;;;;2612949;39;20808;-80
2022/12/31 02:13:27;;;;;;;1.80;0.60;;;13.90;99.90;;;;;;2613930;54;20503;-77
2022/12/31 02:16:09;;;;;;;2.83;0.60;;;14.00;99.90;;;;;;2612976;54;20154;-77
2022/12/31 02:18:55;;;;;;;1.67;0.60;;;14.00;99.90;;;;;;2612339;54;20543;-78
2022/12/31 02:21:39;;;;;;;2.53;0.70;;;14.10;99.90;;;;;;2611960;54;20450;-78
2022/12/31 02:24:29;;;;;;;2.27;0.70;;;14.20;99.90;;;;;;2611826;54;20600;-76
2022/12/31 02:27:01;;;;;;;2.17;0.80;;;14.20;99.90;;;;;;2613714;54;20499;-76
2022/12/31 02:29:55;;;;;;;1.57;0.60;;;14.40;99.90;;;;;;2612488;46;20427;-78
2022/12/31 02:32:23;;;;;;;1.87;0.90;;;14.60;99.90;;;;;;2612963;54;20427;-79
2022/12/31 02:34:58;;;;;;;1.93;0.80;;;14.60;99.90;;;;;;2613163;39;21204;-77
2022/12/31 02:37:27;;;;;;;1.63;0.70;;;14.60;99.90;;;;;;2612786;47;20423;-77
2022/12/31 02:39:54;;;;;;;2.20;0.70;;;14.50;99.90;;;;;;2612739;54;20431;-80
2022/12/31 02:42:19;;;;;;;2.23;0.93;;;14.80;99.90;;;;;;2612864;47;20423;-81
2022/12/31 02:44:45;;;;;;;2.20;1.03;;;14.70;99.90;;;;;;2612191;39;20880;-79
2022/12/31 02:47:37;;;;;;;1.80;0.70;;;14.60;99.90;;;;;;2614006;54;20177;-79
2022/12/31 02:50:21;;;;;;;1.93;0.73;;;14.80;99.90;;;;;;2613165;54;20177;-78
2022/12/31 02:52:46;;;;;;;1.63;0.67;;;14.70;99.90;;;;;;2612994;54;20411;-78
2022/12/31 02:55:36;;;;;;;1.47;0.57;;;14.60;99.90;;;;;;2612877;54;20425;-77
2022/12/31 02:58:20;;;;;;;1.77;0.70;;;14.70;99.90;;;;;;2612266;39;20594;-77
2022/12/31 03:03:39;;;;;;;2.00;0.60;;;15.00;99.90;;;;;;2614270;54;20439;-77
2022/12/31 03:06:10;;;;;;;2.57;0.73;;;15.00;99.90;;;;;;2614315;54;20446;-76
2022/12/31 03:09:11;;;;;;;2.10;0.60;;;15.00;99.90;;;;;;2613430;31;20912;-79
2022/12/31 03:14:06;;;;;;;1.90;0.53;;;15.30;99.90;;;;;;2613888;54;20518;-77
2022/12/31 03:16:32;;;;;;;1.80;0.60;;;15.30;99.90;;;;;;2611436;54;20419;-78
2022/12/31 03:27:10;;;;;;;1.83;0.70;;;15.10;99.90;;;;;;2612414;54;20403;-76
2022/12/31 03:29:36;;;;;;;1.60;0.50;;;15.00;99.90;;;;;;2614382;54;20415;-75
2022/12/31 03:32:02;;;;;;;1.70;0.60;;;15.00;99.90;;;;;;2612677;54;20165;-76
2022/12/31 03:34:28;;;;;;;1.70;0.70;;;14.80;99.90;;;;;;2612750;54;20170;-77
2022/12/31 03:36:53;;;;;;;2.57;0.50;;;14.80;99.90;;;;;;2613127;54;20412;-79
2022/12/31 03:39:19;;;;;;;1.60;0.50;;;14.90;99.90;;;;;;2612515;54;20242;-79
2022/12/31 03:41:45;;;;;;;1.60;0.60;;;14.90;99.90;;;;;;2612302;47;20173;-79
2022/12/31 03:44:10;;;;;;;1.70;0.57;;;14.90;99.90;;;;;;2612804;54;20219;-79
2022/12/31 03:46:36;;;;;;;1.60;0.50;;;15.10;99.90;;;;;;2613917;46;20178;-79
2022/12/31 03:49:01;;;;;;;2.80;0.70;;;15.10;99.90;;;;;;2613846;54;20202;-80
2022/12/31 03:51:27;;;;;;;1.70;0.70;;;15.40;99.90;;;;;;2612072;54;20865;-80
2022/12/31 03:53:53;;;;;;;1.90;0.53;;;15.40;99.90;;;;;;2614735;39;20582;-78
2022/12/31 03:56:18;;;;;;;2.07;0.53;;;15.50;99.90;;;;;;2613021;54;20282;-77
2022/12/31 03:58:44;;;;;;;3.50;0.63;;;15.50;99.90;;;;;;2612448;54;20201;-77
2022/12/31 04:01:10;;;;;;;3.10;0.57;;;15.60;99.90;;;;;;2612597;54;20165;-76
2022/12/31 04:03:35;;;;;;;1.70;0.60;;;15.50;99.90;;;;;;2612956;39;20583;-77
2022/12/31 04:06:01;;;;;;;2.80;0.50;;;15.50;99.90;;;;;;2612254;47;20178;-78
2022/12/31 04:08:26;;;;;;;1.50;0.63;;;15.70;99.90;;;;;;2611724;54;20266;-77
2022/12/31 04:10:52;;;;;;;2.17;0.73;;;16.00;99.90;;;;;;2613620;39;20578;-78
2022/12/31 04:13:18;;;;;;;2.87;0.60;;;15.70;99.90;;;;;;2613282;54;20245;-78
2022/12/31 04:15:43;;;;;;;2.33;0.63;;;15.80;99.90;;;;;;2612251;54;20157;-78
2022/12/31 04:18:09;;;;;;;10.00;2.23;;;15.80;99.90;;;;;;2613427;46;20190;-78
2022/12/31 04:20:35;;;;;;;2.80;0.80;;;15.80;99.90;;;;;;2612750;54;20194;-76
2022/12/31 04:23:00;;;;;;;1.90;0.50;;;15.80;99.90;;;;;;2612779;54;20154;-76
2022/12/31 04:25:26;;;;;;;2.10;0.50;;;15.60;99.90;;;;;;2611487;39;21012;-80
2022/12/31 04:27:52;;;;;;;1.40;0.40;;;15.80;99.90;;;;;;2612889;54;20189;-78
2022/12/31 04:30:17;;;;;;;1.87;0.53;;;15.80;99.90;;;;;;2612851;54;20269;-77
2022/12/31 04:32:43;;;;;;;1.80;0.60;;;15.80;99.90;;;;;;2613677;54;20147;-77
2022/12/31 04:35:12;;;;;;;1.97;0.60;;;15.60;99.90;;;;;;2612510;54;20178;-79
2022/12/31 04:37:38;;;;;;;1.50;0.40;;;15.50;99.90;;;;;;2613207;39;20838;-79
2022/12/31 04:40:04;;;;;;;1.53;0.43;;;15.50;99.90;;;;;;2612941;54;20534;-79
2022/12/31 04:42:30;;;;;;;1.60;0.57;;;15.60;99.90;;;;;;2613904;54;20422;-79
2022/12/31 04:44:55;;;;;;;1.70;0.57;;;15.70;99.90;;;;;;2611693;54;20416;-77
2022/12/31 04:47:21;;;;;;;1.60;0.60;;;15.80;99.90;;;;;;2611892;47;20186;-78
2022/12/31 04:49:47;;;;;;;1.70;0.43;;;15.80;99.90;;;;;;2610960;54;20181;-77
2022/12/31 04:52:12;;;;;;;1.80;0.50;;;15.70;99.90;;;;;;2612700;47;20246;-77
2022/12/31 04:54:38;;;;;;;2.07;0.70;;;15.90;99.90;;;;;;2612457;54;20171;-77
2022/12/31 04:57:03;;;;;;;1.60;0.53;;;16.00;99.90;;;;;;2613019;54;20163;-76
2022/12/31 04:59:29;;;;;;;1.50;0.50;;;16.00;99.90;;;;;;2611865;54;20188;-75
2022/12/31 05:01:55;;;;;;;1.90;0.60;;;16.00;99.90;;;;;;2610915;54;20158;-79
2022/12/31 05:04:20;;;;;;;1.50;0.50;;;16.20;99.90;;;;;;2613230;39;20778;-78
2022/12/31 05:06:46;;;;;;;1.87;0.40;;;16.20;99.90;;;;;;2612196;54;20162;-76
2022/12/31 05:09:12;;;;;;;1.70;0.60;;;16.10;99.90;;;;;;2612551;39;20814;-76
2022/12/31 05:11:38;;;;;;;1.60;0.40;;;16.10;99.90;;;;;;2612732;54;20210;-79
2022/12/31 05:14:03;;;;;;;1.60;0.50;;;16.10;99.90;;;;;;2613427;54;20222;-78
2022/12/31 05:16:29;;;;;;;1.50;0.57;;;16.30;99.90;;;;;;2613668;54;20427;-78
2022/12/31 05:18:55;;;;;;;1.57;0.67;;;16.20;99.90;;;;;;2613692;39;20592;-76
2022/12/31 05:21:21;;;;;;;1.70;0.60;;;16.20;99.90;;;;;;2614196;54;20151;-78
2022/12/31 05:23:47;;;;;;;4.67;0.93;;;16.30;99.90;;;;;;2613995;54;20278;-78
2022/12/31 05:26:13;;;;;;;1.50;0.60;;;16.40;99.90;;;;;;2613429;54;20166;-75
2022/12/31 05:28:39;;;;;;;2.80;0.77;;;16.40;99.90;;;;;;2613929;54;20423;-75
2022/12/31 05:31:04;;;;;;;1.43;0.53;;;16.50;99.90;;;;;;2612183;39;20913;-78
2022/12/31 05:33:36;;;;;;;2.73;0.90;;;16.50;99.90;;;;;;2612258;54;20162;-75
2022/12/31 05:36:03;;;;;;;1.67;0.80;;;16.50;99.90;;;;;;2613171;54;20163;-75
2022/12/31 05:38:29;;;;;;;2.90;0.90;;;16.50;99.90;;;;;;2613850;47;20447;-80
2022/12/31 05:40:59;;;;;;;3.30;1.30;;;16.40;99.90;;;;;;2614892;54;20994;-77
2022/12/31 05:43:24;;;;;;;1.60;0.80;;;16.40;99.90;;;;;;2613990;54;20246;-78
2022/12/31 05:45:50;;;;;;;2.23;0.87;;;16.40;99.90;;;;;;2613914;54;20990;-83
2022/12/31 05:48:15;;;;;;;1.57;0.80;;;16.60;99.90;;;;;;2614320;54;20163;-80
2022/12/31 05:50:41;;;;;;;1.80;1.00;;;16.60;99.90;;;;;;2614356;39;20580;-77
2022/12/31 05:53:07;;;;;;;3.27;1.10;;;16.70;99.90;;;;;;2613459;54;20158;-77
2022/12/31 05:55:32;;;;;;;2.43;0.70;;;16.60;99.90;;;;;;2613912;46;20266;-78
2022/12/31 05:57:58;;;;;;;2.83;0.93;;;16.60;99.90;;;;;;2614060;54;20196;-78
2022/12/31 06:00:23;;;;;;;2.13;1.13;;;16.60;99.90;;;;;;2613654;54;20686;-78
2022/12/31 06:02:49;;;;;;;2.10;1.10;;;16.60;99.90;;;;;;2612799;54;20185;-77
2022/12/31 06:05:16;;;;;;;1.63;0.90;;;16.60;99.90;;;;;;2614097;54;20169;-79
2022/12/31 06:07:41;;;;;;;1.93;1.00;;;16.60;99.90;;;;;;2614748;54;20170;-81
2022/12/31 06:10:07;;;;;;;2.10;0.87;;;16.50;99.90;;;;;;2614409;54;20403;-79
2022/12/31 06:12:34;;;;;;;1.90;1.13;;;16.60;99.90;;;;;;2614562;54;20206;-80
2022/12/31 06:14:59;;;;;;;1.80;1.03;;;16.60;99.90;;;;;;2613799;47;20439;-80
2022/12/31 06:17:25;;;;;;;1.93;1.00;;;16.80;99.90;;;;;;2613997;54;20394;-77
2022/12/31 06:19:51;;;;;;;1.90;1.00;;;16.70;99.90;;;;;;2614152;47;20194;-76
2022/12/31 06:22:16;;;;;;;2.50;1.40;;;16.70;99.90;;;;;;2613673;54;21137;-79
2022/12/31 06:24:42;;;;;;;1.60;1.03;;;16.60;99.90;;;;;;2614261;54;20155;-78
2022/12/31 06:27:08;;;;;;;2.10;1.07;;;16.60;99.90;;;;;;2614226;47;20183;-80
2022/12/31 06:29:34;;;;;;;2.70;1.20;;;16.60;99.90;;;;;;2615206;47;20173;-79
2022/12/31 06:31:59;;;;;;;1.63;1.13;;;16.70;99.90;;;;;;2612858;51;20486;-74
2022/12/31 06:34:25;;;;;;;3.00;1.30;;;16.60;99.90;;;;;;2613239;54;20184;-74
2022/12/31 06:36:50;;;;;;;2.63;1.30;;;16.60;99.90;;;;;;2614477;47;20166;-76
2022/12/31 06:39:16;;;;;;;2.53;1.53;;;16.60;99.90;;;;;;2613235;54;20250;-77
2022/12/31 06:41:42;;;;;;;2.30;1.30;;;16.60;99.90;;;;;;2613037;54;20751;-76
2022/12/31 06:44:07;;;;;;;3.20;1.30;;;16.50;99.90;;;;;;2613922;54;20758;-75
2022/12/31 06:46:33;;;;;;;2.90;1.67;;;16.60;99.90;;;;;;2612957;54;20274;-79
2022/12/31 06:48:59;;;;;;;1.40;0.93;;;16.60;99.90;;;;;;2613176;39;20565;-77
2022/12/31 06:51:25;;;;;;;2.57;1.13;;;16.60;99.90;;;;;;2611725;54;20336;-76
2022/12/31 06:53:51;;;;;;;4.90;1.50;;;16.70;99.90;;;;;;2613948;54;20186;-76
2022/12/31 06:56:21;;;;;;;4.53;1.40;;;16.80;99.90;;;;;;2611774;54;20414;-80
2022/12/31 06:58:47;;;;;;;4.17;1.57;;;16.60;99.90;;;;;;2613419;54;20445;-79
2022/12/31 07:01:15;;;;;;;6.43;1.37;;;16.60;99.90;;;;;;2613440;47;20462;-79
2022/12/31 07:03:55;;;;;;;1.77;1.30;;;16.60;99.90;;;;;;2611544;54;20431;-79
2022/12/31 07:06:42;;;;;;;3.00;1.50;;;16.80;99.90;;;;;;2613250;54;20431;-79
2022/12/31 07:09:30;;;;;;;4.10;2.10;;;16.70;99.90;;;;;;2611077;46;20404;-79
2022/12/31 07:12:04;;;;;;;1.93;1.50;;;16.80;99.90;;;;;;2611833;39;21018;-78
2022/12/31 07:14:39;;;;;;;2.30;1.40;;;16.80;99.90;;;;;;2612780;39;21053;-78
2022/12/31 07:17:08;;;;;;;3.10;1.77;;;16.80;99.90;;;;;;2613763;54;20427;-73
2022/12/31 07:20:02;;;;;;;1.63;1.50;;;16.80;99.90;;;;;;2612543;39;20850;-76
2022/12/31 07:22:28;;;;;;;3.73;1.77;;;16.80;99.90;;;;;;2612817;54;20560;-75
2022/12/31 07:24:54;;;;;;;3.60;1.90;;;16.80;99.90;;;;;;2612499;39;20792;-77
2022/12/31 07:27:32;;;;;;;1.83;1.63;;;16.90;99.90;;;;;;2613184;54;20458;-77
2022/12/31 07:30:14;;;;;;;3.40;1.60;;;16.90;99.90;;;;;;2612224;39;20505;-77
2022/12/31 07:33:01;;;;;;;2.10;1.50;;;16.90;99.90;;;;;;2614062;54;20423;-80
2022/12/31 07:35:41;;;;;;;2.43;1.73;;;16.80;99.90;;;;;;2614178;54;20419;-77
2022/12/31 07:38:11;;;;;;;3.50;1.60;;;16.80;99.90;;;;;;2613879;47;20478;-77
2022/12/31 07:40:42;;;;;;;2.80;1.60;;;16.90;99.90;;;;;;2613905;46;20843;-79
2022/12/31 07:43:26;;;;;;;3.40;1.73;;;16.80;99.90;;;;;;2613333;54;20524;-79
2022/12/31 07:46:12;;;;;;;4.47;1.83;;;16.80;99.90;;;;;;2614412;54;20429;-76
2022/12/31 07:48:38;;;;;;;2.30;1.40;;;16.80;99.90;;;;;;2613904;54;20555;-79
2022/12/31 07:51:04;;;;;;;3.43;1.80;;;16.80;99.90;;;;;;2613482;54;20408;-76
2022/12/31 07:53:29;;;;;;;3.03;2.03;;;16.90;99.90;;;;;;2613431;54;20439;-76
2022/12/31 07:56:04;;;;;;;2.70;1.43;;;16.80;99.90;;;;;;2611848;47;20526;-78
2022/12/31 07:58:50;;;;;;;3.40;1.50;;;16.90;99.90;;;;;;2612486;46;20169;-78
2022/12/31 08:01:28;;;;;;;2.37;1.50;;;16.80;99.90;;;;;;2610745;39;20802;-77
2022/12/31 08:04:08;;;;;;;4.73;1.70;;;16.90;99.90;;;;;;2608343;54;20426;-75
2022/12/31 08:07:01;;;;;;;2.57;1.50;;;16.80;99.90;;;;;;2610172;54;20427;-77
2022/12/31 08:09:41;;;;;;;2.50;1.90;;;16.80;99.90;;;;;;2611520;47;20457;-80
2022/12/31 08:12:07;;;;;;;3.50;1.70;;;16.90;99.90;;;;;;2610700;54;20430;-75
2022/12/31 08:14:41;;;;;;;3.90;2.07;;;16.80;99.90;;;;;;2610615;54;20435;-75
2022/12/31 08:17:10;;;;;;;17.30;1.83;;;16.90;99.90;;;;;;2610682;47;20442;-76
2022/12/31 08:19:36;;;;;;;2.23;1.80;;;16.90;99.90;;;;;;2611037;54;20447;-77
2022/12/31 08:22:30;;;;;;;8.13;4.80;;;17.10;99.90;;;;;;2609273;47;20503;-79
2022/12/31 08:25:07;;;;;;;2.53;2.00;;;17.00;99.90;;;;;;2610457;54;20155;-79
2022/12/31 08:27:41;;;;;;;4.23;1.97;;;16.90;99.90;;;;;;2610784;47;20435;-77
2022/12/31 08:30:15;;;;;;;3.13;2.03;;;17.20;99.90;;;;;;2612006;47;20426;-79
2022/12/31 08:33:17;;;;;;;6.53;2.50;;;17.10;99.90;;;;;;2610332;54;20449;-78
2022/12/31 08:36:01;;;;;;;5.03;2.10;;;17.10;99.90;;;;;;2611398;54;20455;-81
2022/12/31 08:39:14;;;;;;;5.43;2.43;;;17.00;99.90;;;;;;2614431;47;20435;-80
2022/12/31 08:41:46;;;;;;;2.90;2.10;;;17.00;99.90;;;;;;2613011;47;20472;-78
2022/12/31 08:44:35;;;;;;;3.63;3.00;;;17.10;99.90;;;;;;2615530;54;20410;-79
2022/12/31 08:47:03;;;;;;;3.10;2.20;;;17.10;99.90;;;;;;2614385;47;20424;-80
2022/12/31 08:49:36;;;;;;;2.57;2.10;;;17.30;99.90;;;;;;2615275;54;20446;-80
2022/12/31 08:52:03;;;;;;;5.50;2.27;;;17.10;99.90;;;;;;2620947;47;20435;-79
2022/12/31 08:54:28;;;;;;;3.27;2.20;;;17.20;99.90;;;;;;2621028;54;20400;-80
2022/12/31 08:57:03;;;;;;;6.27;2.53;;;17.20;99.90;;;;;;2617226;54;20415;-80
2022/12/31 08:59:56;;;;;;;5.20;2.20;;;17.20;99.90;;;;;;2613518;54;20166;-81
2022/12/31 09:02:21;;;;;;;5.63;2.43;;;17.20;99.90;;;;;;2610558;47;20435;-79
2022/12/31 09:04:50;;;;;;;2.43;2.10;;;17.20;99.90;;;;;;2609700;47;20963;-79
2022/12/31 09:07:22;;;;;;;4.50;2.07;;;17.20;99.90;;;;;;2610104;39;20617;-77
2022/12/31 09:10:04;;;;;;;3.00;2.70;;;17.20;99.90;;;;;;2609850;54;20415;-82
2022/12/31 09:13:08;;;;;;;2.60;2.40;;;17.20;99.90;;;;;;2611456;54;20967;-83
2022/12/31 09:15:52;;;;;;;4.23;2.17;;;17.20;99.90;;;;;;2611099;54;20423;-76
2022/12/31 09:18:18;;;;;;;3.37;2.67;;;17.30;99.90;;;;;;2612250;54;20423;-79
2022/12/31 09:20:44;;;;;;;3.67;2.47;;;17.30;99.90;;;;;;2611795;47;20522;-79
2022/12/31 09:23:11;;;;;;;3.70;2.20;;;17.30;99.90;;;;;;2612363;47;20442;-78
2022/12/31 09:25:54;;;;;;;2.30;2.10;;;17.30;99.90;;;;;;2612659;47;20166;-79
2022/12/31 09:28:52;;;;;;;6.50;2.03;;;17.40;99.90;;;;;;2613047;54;21311;-78
2022/12/31 09:31:32;;;;;;;7.20;2.77;;;17.20;99.90;;;;;;2613140;47;20391;-80
2022/12/31 09:34:14;;;;;;;2.30;2.10;;;17.30;99.90;;;;;;2613015;46;20427;-78
2022/12/31 09:37:07;;;;;;;2.67;1.90;;;17.30;99.90;;;;;;2617571;54;20438;-82
2022/12/31 09:39:44;;;;;;;2.60;2.40;;;17.30;99.90;;;;;;2620137;54;20418;-80
2022/12/31 09:42:09;;;;;;;6.83;2.93;;;17.30;99.90;;;;;;2613846;54;20992;-78
2022/12/31 09:45:01;;;;;;;2.50;2.30;;;17.30;99.90;;;;;;2613315;47;20418;-77
2022/12/31 09:47:45;;;;;;;4.37;2.70;;;17.40;99.90;;;;;;2615766;39;20469;-81
2022/12/31 09:50:36;;;;;;;2.77;2.50;;;17.30;99.90;;;;;;2615720;54;20419;-80
2022/12/31 09:53:24;;;;;;;2.73;2.53;;;17.30;99.90;;;;;;2613199;39;20833;-82
2022/12/31 09:55:58;;;;;;;2.70;2.50;;;17.40;99.90;;;;;;2612833;54;20403;-78
2022/12/31 09:58:26;;;;;;;5.17;2.97;;;17.30;99.90;;;;;;2613161;54;20426;-78
2022/12/31 10:01:00;;;;;;;4.27;2.77;;;17.30;99.90;;;;;;2614749;47;20426;-80
2022/12/31 10:03:36;;;;;;;4.27;2.63;;;17.30;99.90;;;;;;2614918;39;20801;-81
2022/12/31 10:06:20;;;;;;;5.67;3.03;;;17.20;99.90;;;;;;2614732;54;20411;-80
2022/12/31 10:09:21;;;;;;;5.97;2.77;;;17.30;99.90;;;;;;2615118;46;20453;-82
2022/12/31 10:12:17;;;;;;;3.87;2.70;;;17.30;99.90;;;;;;2615551;47;20436;-81
2022/12/31 10:14:49;;;;;;;8.57;2.63;;;17.30;99.90;;;;;;2612547;46;20473;-81
2022/12/31 10:17:54;;;;;;;2.97;2.70;;;17.30;99.90;;;;;;2615083;39;20754;-80
2022/12/31 10:20:49;;;;;;;2.73;2.53;;;17.40;99.90;;;;;;2613076;54;20442;-76
2022/12/31 10:23:31;;;;;;;8.80;2.47;;;17.50;99.90;;;;;;2611383;47;20455;-78
2022/12/31 10:26:30;;;;;;;3.03;2.23;;;17.40;99.90;;;;;;2612435;47;20515;-83
2022/12/31 10:29:35;;;;;;;5.30;2.60;;;17.50;99.90;;;;;;2613890;54;20427;-82
2022/12/31 10:32:19;;;;;;;5.10;2.53;;;17.60;99.90;;;;;;2611445;54;20398;-78
2022/12/31 10:35:09;;;;;;;3.07;2.50;;;17.60;99.90;;;;;;2612303;47;20542;-78
2022/12/31 10:37:42;;;;;;;5.23;2.80;;;17.70;99.90;;;;;;2614127;54;20439;-82
2022/12/31 10:40:47;;;;;;;3.17;2.80;;;17.70;99.90;;;;;;2614013;54;20518;-81
2022/12/31 10:43:32;;;;;;;2.73;2.53;;;17.80;99.90;;;;;;2612638;54;21412;-80
2022/12/31 10:46:21;;;;;;;2.83;2.60;;;17.70;99.90;;;;;;2612093;46;20431;-78
2022/12/31 10:49:29;;;;;;;5.90;3.27;;;17.70;99.90;;;;;;2613578;46;20427;-80
2022/12/31 10:52:20;;;;;;;2.93;2.73;;;17.70;99.90;;;;;;2613428;39;20814;-76
2022/12/31 10:55:19;;;;;;;3.00;2.70;;;17.70;99.90;;;;;;2611714;39;20980;-76
2022/12/31 10:58:23;;;;;;;3.10;2.60;;;17.70;99.90;;;;;;2612906;54;20423;-75
2022/12/31 11:00:51;;;;;;;3.07;2.83;;;17.70;99.90;;;;;;2613841;54;20418;-81
2022/12/31 11:03:32;;;;;;;4.33;3.60;;;17.80;99.90;;;;;;2613525;54;20419;-81
2022/12/31 11:06:16;;;;;;;3.87;2.93;;;17.80;99.90;;;;;;2615172;54;20411;-80
2022/12/31 11:08:44;;;;;;;5.93;4.80;;;17.80;99.90;;;;;;2613797;54;20435;-81
2022/12/31 11:11:13;;;;;;;3.40;3.10;;;17.80;99.90;;;;;;2614760;54;20399;-77
2022/12/31 11:13:48;;;;;;;6.93;2.97;;;17.70;99.90;;;;;;2614999;54;20416;-77
2022/12/31 11:16:27;;;;;;;4.80;3.30;;;17.80;99.90;;;;;;2615025;54;20411;-79
2022/12/31 11:18:52;;;;;;;3.70;3.10;;;17.80;99.90;;;;;;2613772;54;20455;-79
2022/12/31 11:21:49;;;;;;;3.33;2.90;;;17.90;99.90;;;;;;2615263;39;20784;-85
2022/12/31 11:24:28;;;;;;;8.20;3.30;;;17.90;99.90;;;;;;2615628;54;20243;-82
2022/12/31 11:27:42;;;;;;;4.47;2.90;;;17.90;99.90;;;;;;2615419;54;20419;-79
2022/12/31 11:30:23;;;;;;;3.10;2.80;;;17.90;99.90;;;;;;2614735;54;20497;-81
2022/12/31 11:33:04;;;;;;;2.97;2.70;;;17.80;99.90;;;;;;2615308;54;20539;-82
2022/12/31 11:35:41;;;;;;;5.80;2.80;;;17.80;99.90;;;;;;2612773;54;20932;-82
2022/12/31 11:38:27;;;;;;;7.57;2.97;;;17.80;99.90;;;;;;2616381;31;20892;-81
2022/12/31 11:41:04;;;;;;;4.50;3.37;;;17.70;99.90;;;;;;2615545;47;20482;-80
2022/12/31 11:43:45;;;;;;;6.10;3.10;;;17.60;99.90;;;;;;2612420;54;20459;-81
2022/12/31 11:46:44;;;;;;;4.43;3.10;;;17.60;99.90;;;;;;2615367;47;20427;-78
2022/12/31 11:49:55;;;;;;;5.23;3.17;;;17.60;99.90;;;;;;2613423;54;20411;-79
2022/12/31 11:52:45;;;;;;;8.33;3.17;;;17.60;99.90;;;;;;2610093;54;20549;-78
2022/12/31 11:55:35;;;;;;;4.00;3.23;;;17.60;99.90;;;;;;2611149;54;20458;-81
2022/12/31 11:58:16;;;;;;;6.33;3.60;;;17.60;99.90;;;;;;2612249;54;20428;-82
2022/12/31 12:01:11;;;;;;;3.57;2.77;;;17.60;99.90;;;;;;2613057;54;20967;-80
2022/12/31 12:03:42;;;;;;;4.03;3.63;;;17.60;99.90;;;;;;2613457;54;20435;-83
2022/12/31 12:06:12;;;;;;;3.60;2.73;;;17.60;99.90;;;;;;2613587;54;20472;-78
2022/12/31 12:08:38;;;;;;;9.03;3.57;;;17.50;99.90;;;;;;2613177;54;20427;-78
2022/12/31 12:11:07;;;;;;;3.13;2.93;;;17.50;99.90;;;;;;2612137;47;20415;-81
2022/12/31 12:13:33;;;;;;;3.73;3.30;;;17.40;99.90;;;;;;2611651;54;20174;-80
2022/12/31 12:16:06;;;;;;;4.10;2.93;;;17.50;99.90;;;;;;2611946;54;20522;-80
2022/12/31 12:18:49;;;;;;;4.47;2.93;;;17.50;99.90;;;;;;2612267;54;20155;-76
2022/12/31 12:21:17;;;;;;;6.10;3.53;;;17.50;99.90;;;;;;2612277;54;21039;-76
2022/12/31 12:23:58;;;;;;;4.17;2.60;;;17.30;99.90;;;;;;2613718;54;20427;-76
2022/12/31 12:26:40;;;;;;;2.63;2.43;;;17.30;99.90;;;;;;2614627;54;20434;-75
2022/12/31 12:29:14;;;;;;;5.33;3.50;;;17.10;99.90;;;;;;2614577;54;20515;-77
2022/12/31 12:31:40;;;;;;;5.53;2.83;;;17.10;99.90;;;;;;2613763;54;20446;-78
2022/12/31 12:34:23;;;;;;;4.70;2.63;;;17.10;99.90;;;;;;2613456;54;20420;-75
2022/12/31 12:36:49;;;;;;;6.23;2.83;;;16.90;99.90;;;;;;2612694;54;20447;-77
2022/12/31 12:39:21;;;;;;;3.73;2.93;;;16.90;99.90;;;;;;2612510;39;20858;-77
2022/12/31 12:42:06;;;;;;;2.93;2.57;;;16.70;99.90;;;;;;2619866;39;21048;-87
2022/12/31 12:44:34;;;;;;;3.73;3.43;;;16.40;99.90;;;;;;2618240;39;20881;-88
2022/12/31 12:47:02;;;;;;;4.57;2.93;;;16.40;99.90;;;;;;2614212;54;20423;-77
2022/12/31 12:49:35;;;;;;;6.47;2.73;;;16.50;99.90;;;;;;2613960;39;21107;-78
2022/12/31 12:52:23;;;;;;;5.40;3.20;;;16.40;99.90;;;;;;2615509;54;20903;-86
2022/12/31 12:55:13;;;;;;;3.00;2.70;;;16.30;99.90;;;;;;2616935;31;20916;-84
2022/12/31 12:57:48;;;;;;;3.23;2.93;;;16.40;99.90;;;;;;2615281;54;20415;-88
2022/12/31 13:00:37;;;;;;;7.60;2.67;;;16.60;99.90;;;;;;2614087;54;20514;-82
2022/12/31 13:03:27;;;;;;;4.20;2.60;;;16.50;99.90;;;;;;2614272;39;21125;-84
2022/12/31 13:06:08;;;;;;;8.70;2.33;;;16.70;99.90;;;;;;2612931;54;20530;-77
2022/12/31 13:09:07;;;;;;;3.80;2.50;;;16.80;99.90;;;;;;2612475;54;20423;-76
2022/12/31 13:12:09;;;;;;;7.37;2.37;;;16.80;99.90;;;;;;2613034;54;20400;-81
2022/12/31 13:15:02;;;;;;;3.20;2.20;;;16.70;99.90;;;;;;2611887;54;20818;-81
2022/12/31 13:17:33;;;;;;;2.93;2.50;;;17.00;99.90;;;;;;2613090;54;20455;-81
2022/12/31 13:20:25;;;;;;;3.10;2.37;;;17.00;99.90;;;;;;2612000;54;20438;-79
2022/12/31 13:23:21;;;;;;;8.43;2.50;;;16.90;99.90;;;;;;2613264;54;20450;-80
2022/12/31 13:26:13;;;;;;;4.07;2.37;;;16.90;99.90;;;;;;2610204;47;20434;-82
2022/12/31 13:28:42;;;;;;;3.97;2.63;;;17.00;99.90;;;;;;2612113;54;20404;-84
2022/12/31 13:31:18;;;;;;;5.07;2.30;;;17.10;99.90;;;;;;2612522;54;21317;-79
2022/12/31 13:33:58;;;;;;;3.30;2.43;;;17.00;99.90;;;;;;2613008;54;20419;-81
2022/12/31 13:36:26;;;;;;;2.60;2.40;;;16.90;99.90;;;;;;2613261;54;20419;-80
2022/12/31 13:38:56;;;;;;;3.60;2.67;;;17.00;99.90;;;;;;2613225;47;20408;-79
2022/12/31 13:41:40;;;;;;;4.70;2.83;;;17.10;99.90;;;;;;2613047;47;20427;-79